This is the latest recevied weather packets stored in our database for station/object SQ5JP-4. If no packets are shown the sender has not sent any weather packets the latest 10 day(s).
| Time | Temp. | Humidity | Pressure | Rain* | Wind** | Luminosity | Snow |
|---|---|---|---|---|---|---|---|
| 1777671888 | 5.56° C | 100% | 1006.6 hPa | - | - | - | - |
| 1777670988 | 5.56° C | 100% | 1006.7 hPa | - | - | - | - |
| 1777670088 | 6.11° C | 100% | 1006.9 hPa | - | - | - | - |
| 1777669188 | 6.11° C | 100% | 1006.7 hPa | - | - | - | - |
| 1777668288 | 6.67° C | 100% | 1006.8 hPa | - | - | - | - |
| 1777667387 | 7.22° C | 100% | 1006.7 hPa | - | - | - | - |
| 1777665590 | 7.78° C | 100% | 1006.8 hPa | - | - | - | - |
| 1777664690 | 8.33° C | 100% | 1006.9 hPa | - | - | - | - |
| 1777663790 | 8.89° C | 100% | 1006.8 hPa | - | - | - | - |
| 1777662890 | 9.44° C | 100% | 1006.7 hPa | - | - | - | - |
| 1777661989 | 10.56° C | 100% | 1006.7 hPa | - | - | - | - |
| 1777661089 | 11.11° C | 100% | 1006.5 hPa | - | - | - | - |
| 1777660190 | 12.22° C | 96% | 1006.3 hPa | - | - | - | - |
| 1777659289 | 12.78° C | 85% | 1006.2 hPa | - | - | - | - |
| 1777658389 | 13.89° C | 79% | 1006.1 hPa | - | - | - | - |
| 1777657489 | 15.56° C | 65% | 1006 hPa | - | - | - | - |
| 1777656589 | 18.33° C | 55% | 1005.9 hPa | - | - | - | - |
| 1777655689 | 18.33° C | 54% | 1005.8 hPa | - | - | - | - |
| 1777654789 | 18.33° C | 52% | 1005.6 hPa | - | - | - | - |
| 1777653888 | 18.89° C | 52% | 1005.7 hPa | - | - | - | - |
| 1777652989 | 18.33° C | 51% | 1005.8 hPa | - | - | - | - |
| 1777652088 | 18.33° C | 51% | 1005.8 hPa | - | - | - | - |
| 1777651188 | 18.33° C | 49% | 1005.8 hPa | - | - | - | - |
| 1777650288 | 20° C | 47% | 1005.7 hPa | - | - | - | - |
| 1777649388 | 20° C | 48% | 1005.6 hPa | - | - | - | - |
* Rain since midnight (hover to see other rain measurements)
** Current wind speed in m/s (hover to see current wind gust speed)